sensor_id;sensor_type;location;lat;lon;timestamp;P1;durP1;ratioP1;P2;durP2;ratioP2
18411;SDS011;27097;51.738;19.472;2023-07-08T00:02:12;9.80;;;3.90;;
18411;SDS011;27097;51.738;19.472;2023-07-08T00:04:39;10.07;;;3.88;;
18411;SDS011;27097;51.738;19.472;2023-07-08T00:07:09;9.38;;;3.88;;
18411;SDS011;27097;51.738;19.472;2023-07-08T00:09:38;7.55;;;4.05;;
18411;SDS011;27097;51.738;19.472;2023-07-08T00:12:08;9.52;;;4.63;;
18411;SDS011;27097;51.738;19.472;2023-07-08T00:14:36;8.02;;;4.03;;
18411;SDS011;27097;51.738;19.472;2023-07-08T00:17:08;12.07;;;4.22;;
18411;SDS011;27097;51.738;19.472;2023-07-08T00:19:37;13.43;;;4.32;;
18411;SDS011;27097;51.738;19.472;2023-07-08T00:22:07;11.40;;;4.32;;
18411;SDS011;27097;51.738;19.472;2023-07-08T00:24:37;8.88;;;4.40;;
18411;SDS011;27097;51.738;19.472;2023-07-08T00:27:04;8.68;;;4.38;;
18411;SDS011;27097;51.738;19.472;2023-07-08T00:29:32;9.02;;;4.55;;
18411;SDS011;27097;51.738;19.472;2023-07-08T00:31:59;12.82;;;4.57;;
18411;SDS011;27097;51.738;19.472;2023-07-08T00:34:27;8.57;;;4.43;;
18411;SDS011;27097;51.738;19.472;2023-07-08T00:36:54;7.68;;;4.43;;
18411;SDS011;27097;51.738;19.472;2023-07-08T00:39:21;8.32;;;4.50;;
18411;SDS011;27097;51.738;19.472;2023-07-08T00:41:49;10.73;;;4.57;;
18411;SDS011;27097;51.738;19.472;2023-07-08T00:44:17;10.43;;;5.00;;
18411;SDS011;27097;51.738;19.472;2023-07-08T00:46:47;8.70;;;4.65;;
18411;SDS011;27097;51.738;19.472;2023-07-08T00:49:24;8.40;;;4.50;;
18411;SDS011;27097;51.738;19.472;2023-07-08T00:54:44;9.38;;;4.57;;
18411;SDS011;27097;51.738;19.472;2023-07-08T00:57:11;12.43;;;5.07;;
18411;SDS011;27097;51.738;19.472;2023-07-08T00:59:39;9.80;;;5.18;;
18411;SDS011;27097;51.738;19.472;2023-07-08T01:02:09;14.82;;;4.70;;
18411;SDS011;27097;51.738;19.472;2023-07-08T01:04:43;11.65;;;4.85;;
18411;SDS011;27097;51.738;19.472;2023-07-08T01:07:16;10.65;;;5.50;;
18411;SDS011;27097;51.738;19.472;2023-07-08T01:09:46;8.13;;;4.43;;
18411;SDS011;27097;51.738;19.472;2023-07-08T01:12:17;16.67;;;5.60;;
18411;SDS011;27097;51.738;19.472;2023-07-08T01:14:46;12.25;;;5.28;;
18411;SDS011;27097;51.738;19.472;2023-07-08T01:17:14;11.77;;;5.05;;
18411;SDS011;27097;51.738;19.472;2023-07-08T01:19:43;17.63;;;5.97;;
18411;SDS011;27097;51.738;19.472;2023-07-08T01:22:13;13.27;;;5.22;;
18411;SDS011;27097;51.738;19.472;2023-07-08T01:24:41;11.50;;;5.72;;
18411;SDS011;27097;51.738;19.472;2023-07-08T01:27:10;13.20;;;5.82;;
18411;SDS011;27097;51.738;19.472;2023-07-08T01:29:39;13.60;;;5.55;;
18411;SDS011;27097;51.738;19.472;2023-07-08T01:32:06;10.77;;;4.97;;
18411;SDS011;27097;51.738;19.472;2023-07-08T01:34:43;11.95;;;5.07;;
18411;SDS011;27097;51.738;19.472;2023-07-08T01:37:27;12.50;;;5.55;;
18411;SDS011;27097;51.738;19.472;2023-07-08T01:39:57;11.30;;;5.65;;
18411;SDS011;27097;51.738;19.472;2023-07-08T01:42:39;14.57;;;5.80;;
18411;SDS011;27097;51.738;19.472;2023-07-08T01:45:08;10.77;;;5.68;;
18411;SDS011;27097;51.738;19.472;2023-07-08T01:47:37;14.07;;;5.03;;
18411;SDS011;27097;51.738;19.472;2023-07-08T01:50:04;10.98;;;5.07;;
18411;SDS011;27097;51.738;19.472;2023-07-08T01:52:34;11.55;;;5.25;;
18411;SDS011;27097;51.738;19.472;2023-07-08T01:55:01;13.43;;;5.75;;
18411;SDS011;27097;51.738;19.472;2023-07-08T01:57:29;12.45;;;5.68;;
18411;SDS011;27097;51.738;19.472;2023-07-08T01:59:55;13.45;;;5.18;;
18411;SDS011;27097;51.738;19.472;2023-07-08T02:02:22;12.13;;;5.32;;
18411;SDS011;27097;51.738;19.472;2023-07-08T02:04:49;13.55;;;5.22;;
18411;SDS011;27097;51.738;19.472;2023-07-08T02:07:16;12.73;;;5.38;;
18411;SDS011;27097;51.738;19.472;2023-07-08T02:09:44;12.85;;;5.38;;
18411;SDS011;27097;51.738;19.472;2023-07-08T02:12:11;12.32;;;5.78;;
18411;SDS011;27097;51.738;19.472;2023-07-08T02:14:38;10.25;;;5.47;;
18411;SDS011;27097;51.738;19.472;2023-07-08T02:17:05;9.10;;;5.43;;
18411;SDS011;27097;51.738;19.472;2023-07-08T02:19:32;11.10;;;5.28;;
18411;SDS011;27097;51.738;19.472;2023-07-08T02:21:59;9.50;;;5.38;;
18411;SDS011;27097;51.738;19.472;2023-07-08T02:24:25;13.82;;;5.30;;
18411;SDS011;27097;51.738;19.472;2023-07-08T02:26:53;10.38;;;5.15;;
18411;SDS011;27097;51.738;19.472;2023-07-08T02:29:20;12.05;;;5.50;;
18411;SDS011;27097;51.738;19.472;2023-07-08T02:31:47;10.27;;;5.40;;
18411;SDS011;27097;51.738;19.472;2023-07-08T02:34:14;9.23;;;5.57;;
18411;SDS011;27097;51.738;19.472;2023-07-08T02:36:41;9.73;;;5.07;;
18411;SDS011;27097;51.738;19.472;2023-07-08T02:39:09;9.27;;;4.97;;
18411;SDS011;27097;51.738;19.472;2023-07-08T02:41:36;13.05;;;4.97;;
18411;SDS011;27097;51.738;19.472;2023-07-08T02:44:04;10.27;;;5.30;;
18411;SDS011;27097;51.738;19.472;2023-07-08T02:46:31;12.15;;;5.00;;
18411;SDS011;27097;51.738;19.472;2023-07-08T02:48:58;10.65;;;5.40;;
18411;SDS011;27097;51.738;19.472;2023-07-08T02:51:25;9.93;;;5.32;;
18411;SDS011;27097;51.738;19.472;2023-07-08T02:53:52;9.27;;;5.22;;
18411;SDS011;27097;51.738;19.472;2023-07-08T02:56:18;9.88;;;5.18;;
18411;SDS011;27097;51.738;19.472;2023-07-08T02:58:46;11.35;;;5.05;;
18411;SDS011;27097;51.738;19.472;2023-07-08T03:01:14;9.43;;;5.10;;
18411;SDS011;27097;51.738;19.472;2023-07-08T03:03:42;11.13;;;5.38;;
18411;SDS011;27097;51.738;19.472;2023-07-08T03:06:09;11.15;;;5.30;;
18411;SDS011;27097;51.738;19.472;2023-07-08T03:08:36;8.43;;;5.30;;
18411;SDS011;27097;51.738;19.472;2023-07-08T03:11:04;12.05;;;5.40;;
18411;SDS011;27097;51.738;19.472;2023-07-08T03:13:32;9.32;;;5.30;;
18411;SDS011;27097;51.738;19.472;2023-07-08T03:16:00;8.63;;;5.18;;
18411;SDS011;27097;51.738;19.472;2023-07-08T03:18:39;11.07;;;5.63;;
18411;SDS011;27097;51.738;19.472;2023-07-08T03:21:11;9.35;;;5.80;;
18411;SDS011;27097;51.738;19.472;2023-07-08T03:23:39;10.88;;;5.85;;
18411;SDS011;27097;51.738;19.472;2023-07-08T03:26:09;10.38;;;5.53;;
18411;SDS011;27097;51.738;19.472;2023-07-08T03:28:40;9.43;;;5.40;;
18411;SDS011;27097;51.738;19.472;2023-07-08T03:31:08;9.25;;;5.53;;
18411;SDS011;27097;51.738;19.472;2023-07-08T03:33:36;12.38;;;5.68;;
18411;SDS011;27097;51.738;19.472;2023-07-08T03:36:07;9.60;;;5.32;;
18411;SDS011;27097;51.738;19.472;2023-07-08T03:38:38;11.48;;;6.07;;
18411;SDS011;27097;51.738;19.472;2023-07-08T03:41:05;13.95;;;5.53;;
18411;SDS011;27097;51.738;19.472;2023-07-08T03:43:32;12.52;;;5.75;;
18411;SDS011;27097;51.738;19.472;2023-07-08T03:45:58;11.93;;;5.47;;
18411;SDS011;27097;51.738;19.472;2023-07-08T03:48:25;10.20;;;5.70;;
18411;SDS011;27097;51.738;19.472;2023-07-08T03:50:52;8.32;;;5.32;;
18411;SDS011;27097;51.738;19.472;2023-07-08T03:53:20;10.93;;;5.68;;
18411;SDS011;27097;51.738;19.472;2023-07-08T03:55:47;9.43;;;5.45;;
18411;SDS011;27097;51.738;19.472;2023-07-08T03:58:14;12.18;;;5.10;;
18411;SDS011;27097;51.738;19.472;2023-07-08T04:00:41;9.77;;;5.38;;
18411;SDS011;27097;51.738;19.472;2023-07-08T04:03:09;13.18;;;5.80;;
18411;SDS011;27097;51.738;19.472;2023-07-08T04:05:37;12.85;;;6.00;;
18411;SDS011;27097;51.738;19.472;2023-07-08T04:08:04;9.88;;;5.68;;
18411;SDS011;27097;51.738;19.472;2023-07-08T04:10:33;10.35;;;5.70;;
18411;SDS011;27097;51.738;19.472;2023-07-08T04:12:59;14.32;;;6.07;;
18411;SDS011;27097;51.738;19.472;2023-07-08T04:15:26;10.98;;;5.75;;
18411;SDS011;27097;51.738;19.472;2023-07-08T04:17:53;8.60;;;5.50;;
18411;SDS011;27097;51.738;19.472;2023-07-08T04:20:22;14.95;;;5.75;;
18411;SDS011;27097;51.738;19.472;2023-07-08T04:22:49;9.77;;;5.68;;
18411;SDS011;27097;51.738;19.472;2023-07-08T04:25:17;8.95;;;4.97;;
18411;SDS011;27097;51.738;19.472;2023-07-08T04:27:46;10.88;;;5.57;;
18411;SDS011;27097;51.738;19.472;2023-07-08T04:30:15;10.48;;;5.28;;
18411;SDS011;27097;51.738;19.472;2023-07-08T04:32:46;12.73;;;5.88;;
18411;SDS011;27097;51.738;19.472;2023-07-08T04:35:13;11.85;;;5.80;;
18411;SDS011;27097;51.738;19.472;2023-07-08T04:37:40;9.68;;;5.45;;
18411;SDS011;27097;51.738;19.472;2023-07-08T04:40:09;14.88;;;5.47;;
18411;SDS011;27097;51.738;19.472;2023-07-08T04:42:45;14.52;;;5.15;;
18411;SDS011;27097;51.738;19.472;2023-07-08T04:45:15;10.38;;;5.00;;
18411;SDS011;27097;51.738;19.472;2023-07-08T04:47:42;10.15;;;5.65;;
18411;SDS011;27097;51.738;19.472;2023-07-08T04:50:12;11.15;;;5.22;;
18411;SDS011;27097;51.738;19.472;2023-07-08T04:52:39;8.68;;;5.10;;
18411;SDS011;27097;51.738;19.472;2023-07-08T04:55:06;10.85;;;5.28;;
18411;SDS011;27097;51.738;19.472;2023-07-08T04:57:34;8.43;;;5.13;;
18411;SDS011;27097;51.738;19.472;2023-07-08T05:00:03;10.88;;;5.30;;
18411;SDS011;27097;51.738;19.472;2023-07-08T05:02:33;9.95;;;5.22;;
18411;SDS011;27097;51.738;19.472;2023-07-08T05:05:00;13.50;;;4.90;;
18411;SDS011;27097;51.738;19.472;2023-07-08T05:07:27;8.23;;;4.78;;
18411;SDS011;27097;51.738;19.472;2023-07-08T05:09:54;9.18;;;4.72;;
18411;SDS011;27097;51.738;19.472;2023-07-08T05:12:21;8.75;;;4.50;;
18411;SDS011;27097;51.738;19.472;2023-07-08T05:14:48;8.18;;;4.90;;
18411;SDS011;27097;51.738;19.472;2023-07-08T05:17:16;6.85;;;4.53;;
18411;SDS011;27097;51.738;19.472;2023-07-08T05:19:43;8.25;;;4.30;;
18411;SDS011;27097;51.738;19.472;2023-07-08T05:22:11;9.70;;;4.70;;
18411;SDS011;27097;51.738;19.472;2023-07-08T05:24:37;7.07;;;4.30;;
18411;SDS011;27097;51.738;19.472;2023-07-08T05:27:04;7.57;;;4.22;;
18411;SDS011;27097;51.738;19.472;2023-07-08T05:29:31;7.05;;;4.00;;
18411;SDS011;27097;51.738;19.472;2023-07-08T05:31:58;5.78;;;3.83;;
18411;SDS011;27097;51.738;19.472;2023-07-08T05:34:26;7.20;;;3.55;;
18411;SDS011;27097;51.738;19.472;2023-07-08T05:36:54;9.00;;;4.13;;
18411;SDS011;27097;51.738;19.472;2023-07-08T05:39:21;7.10;;;3.95;;
18411;SDS011;27097;51.738;19.472;2023-07-08T05:41:48;6.60;;;4.00;;
18411;SDS011;27097;51.738;19.472;2023-07-08T05:44:14;6.03;;;3.95;;
18411;SDS011;27097;51.738;19.472;2023-07-08T05:46:41;10.18;;;4.05;;
18411;SDS011;27097;51.738;19.472;2023-07-08T05:49:08;6.40;;;3.67;;
18411;SDS011;27097;51.738;19.472;2023-07-08T05:51:36;10.48;;;4.03;;
18411;SDS011;27097;51.738;19.472;2023-07-08T05:54:03;7.00;;;3.70;;
18411;SDS011;27097;51.738;19.472;2023-07-08T05:56:30;5.45;;;3.45;;
18411;SDS011;27097;51.738;19.472;2023-07-08T05:58:57;6.25;;;3.53;;
18411;SDS011;27097;51.738;19.472;2023-07-08T06:01:24;4.88;;;3.33;;
18411;SDS011;27097;51.738;19.472;2023-07-08T06:03:51;6.60;;;3.30;;
18411;SDS011;27097;51.738;19.472;2023-07-08T06:06:17;4.88;;;2.97;;
18411;SDS011;27097;51.738;19.472;2023-07-08T06:08:46;5.22;;;2.97;;
18411;SDS011;27097;51.738;19.472;2023-07-08T06:11:13;4.13;;;2.90;;
18411;SDS011;27097;51.738;19.472;2023-07-08T06:13:39;5.20;;;3.22;;
18411;SDS011;27097;51.738;19.472;2023-07-08T06:16:06;4.18;;;3.10;;
18411;SDS011;27097;51.738;19.472;2023-07-08T06:18:33;3.85;;;2.72;;
18411;SDS011;27097;51.738;19.472;2023-07-08T06:21:00;4.28;;;3.08;;
18411;SDS011;27097;51.738;19.472;2023-07-08T06:23:27;3.78;;;2.60;;
18411;SDS011;27097;51.738;19.472;2023-07-08T06:25:56;4.80;;;2.97;;
18411;SDS011;27097;51.738;19.472;2023-07-08T06:28:23;4.35;;;2.97;;
18411;SDS011;27097;51.738;19.472;2023-07-08T06:30:50;4.65;;;2.90;;
18411;SDS011;27097;51.738;19.472;2023-07-08T06:33:17;5.45;;;2.60;;
18411;SDS011;27097;51.738;19.472;2023-07-08T06:35:44;4.32;;;2.67;;
18411;SDS011;27097;51.738;19.472;2023-07-08T06:38:10;4.93;;;2.60;;
18411;SDS011;27097;51.738;19.472;2023-07-08T06:40:38;4.63;;;2.42;;
18411;SDS011;27097;51.738;19.472;2023-07-08T06:43:06;3.15;;;2.40;;
18411;SDS011;27097;51.738;19.472;2023-07-08T06:45:33;4.07;;;2.72;;
18411;SDS011;27097;51.738;19.472;2023-07-08T06:48:00;4.85;;;2.67;;
18411;SDS011;27097;51.738;19.472;2023-07-08T06:50:27;3.47;;;2.40;;
18411;SDS011;27097;51.738;19.472;2023-07-08T06:52:54;3.83;;;2.70;;
18411;SDS011;27097;51.738;19.472;2023-07-08T06:55:21;3.15;;;2.15;;
18411;SDS011;27097;51.738;19.472;2023-07-08T06:57:47;3.38;;;2.10;;
18411;SDS011;27097;51.738;19.472;2023-07-08T07:00:16;3.58;;;2.25;;
18411;SDS011;27097;51.738;19.472;2023-07-08T07:02:43;3.97;;;2.35;;
18411;SDS011;27097;51.738;19.472;2023-07-08T07:05:10;2.47;;;2.08;;
18411;SDS011;27097;51.738;19.472;2023-07-08T07:07:36;3.10;;;2.20;;
18411;SDS011;27097;51.738;19.472;2023-07-08T07:10:04;3.17;;;2.17;;
18411;SDS011;27097;51.738;19.472;2023-07-08T07:12:33;4.30;;;2.38;;
18411;SDS011;27097;51.738;19.472;2023-07-08T07:15:00;3.55;;;2.38;;
18411;SDS011;27097;51.738;19.472;2023-07-08T07:17:28;2.55;;;2.30;;
18411;SDS011;27097;51.738;19.472;2023-07-08T07:19:57;2.45;;;2.05;;
18411;SDS011;27097;51.738;19.472;2023-07-08T07:22:24;2.70;;;1.92;;
18411;SDS011;27097;51.738;19.472;2023-07-08T07:24:50;3.90;;;1.85;;
18411;SDS011;27097;51.738;19.472;2023-07-08T07:27:17;3.13;;;2.17;;
18411;SDS011;27097;51.738;19.472;2023-07-08T07:29:45;3.47;;;2.17;;
18411;SDS011;27097;51.738;19.472;2023-07-08T07:32:13;2.40;;;1.95;;
18411;SDS011;27097;51.738;19.472;2023-07-08T07:34:42;3.38;;;1.95;;
18411;SDS011;27097;51.738;19.472;2023-07-08T07:37:12;2.45;;;1.88;;
18411;SDS011;27097;51.738;19.472;2023-07-08T07:39:40;1.88;;;1.77;;
18411;SDS011;27097;51.738;19.472;2023-07-08T07:42:08;3.28;;;2.20;;
18411;SDS011;27097;51.738;19.472;2023-07-08T07:44:35;3.05;;;2.00;;
18411;SDS011;27097;51.738;19.472;2023-07-08T07:47:04;2.58;;;1.98;;
18411;SDS011;27097;51.738;19.472;2023-07-08T07:49:32;4.47;;;1.88;;
18411;SDS011;27097;51.738;19.472;2023-07-08T07:52:00;2.20;;;2.00;;
18411;SDS011;27097;51.738;19.472;2023-07-08T07:54:27;2.92;;;1.80;;
18411;SDS011;27097;51.738;19.472;2023-07-08T07:56:54;2.53;;;1.90;;
18411;SDS011;27097;51.738;19.472;2023-07-08T07:59:21;2.00;;;1.80;;
18411;SDS011;27097;51.738;19.472;2023-07-08T08:01:48;3.05;;;2.03;;
18411;SDS011;27097;51.738;19.472;2023-07-08T08:04:15;2.53;;;2.00;;
18411;SDS011;27097;51.738;19.472;2023-07-08T08:06:42;3.42;;;2.00;;
18411;SDS011;27097;51.738;19.472;2023-07-08T08:09:11;2.42;;;1.80;;
18411;SDS011;27097;51.738;19.472;2023-07-08T08:11:37;2.35;;;1.70;;
18411;SDS011;27097;51.738;19.472;2023-07-08T08:14:04;2.35;;;1.98;;
18411;SDS011;27097;51.738;19.472;2023-07-08T08:16:31;2.20;;;1.85;;
18411;SDS011;27097;51.738;19.472;2023-07-08T08:18:58;3.25;;;1.90;;
18411;SDS011;27097;51.738;19.472;2023-07-08T08:21:25;2.33;;;1.75;;
18411;SDS011;27097;51.738;19.472;2023-07-08T08:23:51;3.35;;;1.80;;
18411;SDS011;27097;51.738;19.472;2023-07-08T08:26:20;2.33;;;1.80;;
18411;SDS011;27097;51.738;19.472;2023-07-08T08:28:46;2.47;;;2.03;;
18411;SDS011;27097;51.738;19.472;2023-07-08T08:31:13;3.13;;;1.80;;
18411;SDS011;27097;51.738;19.472;2023-07-08T08:33:40;2.75;;;1.90;;
18411;SDS011;27097;51.738;19.472;2023-07-08T08:36:07;2.90;;;2.00;;
18411;SDS011;27097;51.738;19.472;2023-07-08T08:38:34;2.22;;;1.77;;
18411;SDS011;27097;51.738;19.472;2023-07-08T08:41:03;2.60;;;1.83;;
18411;SDS011;27097;51.738;19.472;2023-07-08T08:43:36;2.35;;;1.83;;
18411;SDS011;27097;51.738;19.472;2023-07-08T08:46:06;3.35;;;2.03;;
18411;SDS011;27097;51.738;19.472;2023-07-08T08:48:39;3.42;;;1.90;;
18411;SDS011;27097;51.738;19.472;2023-07-08T08:51:12;3.85;;;1.90;;
18411;SDS011;27097;51.738;19.472;2023-07-08T08:53:41;3.10;;;1.90;;
18411;SDS011;27097;51.738;19.472;2023-07-08T08:56:10;2.88;;;1.80;;
18411;SDS011;27097;51.738;19.472;2023-07-08T08:58:43;2.45;;;2.03;;
18411;SDS011;27097;51.738;19.472;2023-07-08T09:01:15;3.30;;;1.70;;
18411;SDS011;27097;51.738;19.472;2023-07-08T09:03:44;3.58;;;1.88;;
18411;SDS011;27097;51.738;19.472;2023-07-08T09:06:17;3.53;;;1.90;;
18411;SDS011;27097;51.738;19.472;2023-07-08T09:08:46;2.05;;;1.83;;
18411;SDS011;27097;51.738;19.472;2023-07-08T09:11:18;2.65;;;1.98;;
18411;SDS011;27097;51.738;19.472;2023-07-08T09:13:52;2.20;;;2.00;;
18411;SDS011;27097;51.738;19.472;2023-07-08T09:16:23;2.40;;;1.92;;
18411;SDS011;27097;51.738;19.472;2023-07-08T09:18:59;2.58;;;1.90;;
18411;SDS011;27097;51.738;19.472;2023-07-08T09:21:32;3.25;;;2.10;;
18411;SDS011;27097;51.738;19.472;2023-07-08T09:24:04;2.28;;;1.90;;
18411;SDS011;27097;51.738;19.472;2023-07-08T09:26:36;2.00;;;1.55;;
18411;SDS011;27097;51.738;19.472;2023-07-08T09:29:09;2.40;;;2.03;;
18411;SDS011;27097;51.738;19.472;2023-07-08T09:31:37;2.83;;;2.13;;
18411;SDS011;27097;51.738;19.472;2023-07-08T09:34:08;2.10;;;1.90;;
18411;SDS011;27097;51.738;19.472;2023-07-08T09:36:41;2.63;;;2.00;;
18411;SDS011;27097;51.738;19.472;2023-07-08T09:39:10;2.15;;;1.80;;
18411;SDS011;27097;51.738;19.472;2023-07-08T09:41:38;2.88;;;2.00;;
18411;SDS011;27097;51.738;19.472;2023-07-08T09:46:51;5.32;;;2.10;;
18411;SDS011;27097;51.738;19.472;2023-07-08T09:49:20;2.15;;;1.90;;
18411;SDS011;27097;51.738;19.472;2023-07-08T09:51:49;4.18;;;2.00;;
18411;SDS011;27097;51.738;19.472;2023-07-08T09:54:18;1.95;;;1.80;;
18411;SDS011;27097;51.738;19.472;2023-07-08T09:56:49;4.53;;;2.03;;
18411;SDS011;27097;51.738;19.472;2023-07-08T09:59:26;2.03;;;1.83;;
18411;SDS011;27097;51.738;19.472;2023-07-08T10:01:58;3.03;;;1.80;;
18411;SDS011;27097;51.738;19.472;2023-07-08T10:04:41;2.47;;;2.00;;
18411;SDS011;27097;51.738;19.472;2023-07-08T10:07:09;3.55;;;1.90;;
18411;SDS011;27097;51.738;19.472;2023-07-08T10:09:43;2.22;;;1.98;;
18411;SDS011;27097;51.738;19.472;2023-07-08T10:12:12;2.30;;;2.00;;
18411;SDS011;27097;51.738;19.472;2023-07-08T10:14:44;3.90;;;2.00;;
18411;SDS011;27097;51.738;19.472;2023-07-08T10:17:16;2.28;;;1.90;;
18411;SDS011;27097;51.738;19.472;2023-07-08T10:19:45;5.25;;;1.83;;
18411;SDS011;27097;51.738;19.472;2023-07-08T10:22:24;2.53;;;1.88;;
18411;SDS011;27097;51.738;19.472;2023-07-08T10:25:02;3.80;;;2.05;;
18411;SDS011;27097;51.738;19.472;2023-07-08T10:27:39;4.30;;;2.05;;
18411;SDS011;27097;51.738;19.472;2023-07-08T10:30:16;3.90;;;1.88;;
18411;SDS011;27097;51.738;19.472;2023-07-08T10:32:57;2.15;;;1.85;;
18411;SDS011;27097;51.738;19.472;2023-07-08T10:35:39;4.03;;;1.92;;
18411;SDS011;27097;51.738;19.472;2023-07-08T10:38:23;2.70;;;2.08;;
18411;SDS011;27097;51.738;19.472;2023-07-08T10:41:00;4.82;;;2.00;;
18411;SDS011;27097;51.738;19.472;2023-07-08T10:43:36;2.35;;;2.00;;
18411;SDS011;27097;51.738;19.472;2023-07-08T10:46:18;3.45;;;2.00;;
18411;SDS011;27097;51.738;19.472;2023-07-08T10:48:59;2.33;;;1.92;;
18411;SDS011;27097;51.738;19.472;2023-07-08T10:51:47;4.85;;;1.98;;
18411;SDS011;27097;51.738;19.472;2023-07-08T10:54:27;2.33;;;1.92;;
18411;SDS011;27097;51.738;19.472;2023-07-08T10:57:07;3.08;;;2.28;;
18411;SDS011;27097;51.738;19.472;2023-07-08T10:59:47;3.30;;;2.03;;
18411;SDS011;27097;51.738;19.472;2023-07-08T11:02:54;4.05;;;2.10;;
18411;SDS011;27097;51.738;19.472;2023-07-08T11:05:36;2.28;;;2.08;;
18411;SDS011;27097;51.738;19.472;2023-07-08T11:08:09;2.55;;;2.00;;
18411;SDS011;27097;51.738;19.472;2023-07-08T11:10:46;2.90;;;1.92;;
18411;SDS011;27097;51.738;19.472;2023-07-08T11:13:34;3.38;;;2.20;;
18411;SDS011;27097;51.738;19.472;2023-07-08T11:16:10;4.20;;;2.10;;
18411;SDS011;27097;51.738;19.472;2023-07-08T11:18:46;2.58;;;1.90;;
18411;SDS011;27097;51.738;19.472;2023-07-08T11:21:19;2.60;;;1.92;;
18411;SDS011;27097;51.738;19.472;2023-07-08T11:23:50;4.55;;;2.03;;
18411;SDS011;27097;51.738;19.472;2023-07-08T11:26:25;2.00;;;1.80;;
18411;SDS011;27097;51.738;19.472;2023-07-08T11:28:57;4.28;;;2.00;;
18411;SDS011;27097;51.738;19.472;2023-07-08T11:31:25;3.10;;;1.98;;
18411;SDS011;27097;51.738;19.472;2023-07-08T11:33:57;4.28;;;2.33;;
18411;SDS011;27097;51.738;19.472;2023-07-08T11:36:25;2.58;;;1.88;;
18411;SDS011;27097;51.738;19.472;2023-07-08T11:38:55;2.33;;;1.70;;
18411;SDS011;27097;51.738;19.472;2023-07-08T11:41:26;2.50;;;1.90;;
18411;SDS011;27097;51.738;19.472;2023-07-08T11:43:57;2.78;;;2.00;;
18411;SDS011;27097;51.738;19.472;2023-07-08T11:46:26;2.53;;;2.00;;
18411;SDS011;27097;51.738;19.472;2023-07-08T11:49:00;3.15;;;2.00;;
18411;SDS011;27097;51.738;19.472;2023-07-08T11:51:29;2.28;;;1.98;;
18411;SDS011;27097;51.738;19.472;2023-07-08T11:53:59;2.33;;;1.80;;
18411;SDS011;27097;51.738;19.472;2023-07-08T11:56:46;2.58;;;1.92;;
18411;SDS011;27097;51.738;19.472;2023-07-08T11:59:16;2.70;;;1.80;;
18411;SDS011;27097;51.738;19.472;2023-07-08T12:01:48;3.95;;;1.90;;
18411;SDS011;27097;51.738;19.472;2023-07-08T12:04:26;2.60;;;2.08;;
18411;SDS011;27097;51.738;19.472;2023-07-08T12:07:03;4.00;;;1.83;;
18411;SDS011;27097;51.738;19.472;2023-07-08T12:09:38;2.10;;;1.85;;
18411;SDS011;27097;51.738;19.472;2023-07-08T12:12:14;3.72;;;1.90;;
18411;SDS011;27097;51.738;19.472;2023-07-08T12:14:43;2.70;;;2.10;;
18411;SDS011;27097;51.738;19.472;2023-07-08T12:17:11;4.55;;;2.17;;
18411;SDS011;27097;51.738;19.472;2023-07-08T12:19:40;3.85;;;1.90;;
18411;SDS011;27097;51.738;19.472;2023-07-08T12:22:09;2.20;;;2.00;;
18411;SDS011;27097;51.738;19.472;2023-07-08T12:24:37;2.28;;;1.83;;
18411;SDS011;27097;51.738;19.472;2023-07-08T12:27:04;2.15;;;1.80;;
18411;SDS011;27097;51.738;19.472;2023-07-08T12:29:31;2.80;;;2.20;;
18411;SDS011;27097;51.738;19.472;2023-07-08T12:31:58;2.22;;;2.03;;
18411;SDS011;27097;51.738;19.472;2023-07-08T12:34:25;2.42;;;1.88;;
18411;SDS011;27097;51.738;19.472;2023-07-08T12:36:54;3.50;;;2.20;;
18411;SDS011;27097;51.738;19.472;2023-07-08T12:39:21;2.75;;;2.03;;
18411;SDS011;27097;51.738;19.472;2023-07-08T12:41:48;2.45;;;1.92;;
18411;SDS011;27097;51.738;19.472;2023-07-08T12:44:18;2.10;;;1.90;;
18411;SDS011;27097;51.738;19.472;2023-07-08T12:46:46;2.40;;;2.00;;
18411;SDS011;27097;51.738;19.472;2023-07-08T12:49:14;4.13;;;2.08;;
18411;SDS011;27097;51.738;19.472;2023-07-08T12:51:42;3.22;;;1.95;;
18411;SDS011;27097;51.738;19.472;2023-07-08T12:54:12;3.60;;;1.95;;
18411;SDS011;27097;51.738;19.472;2023-07-08T12:56:48;2.83;;;1.98;;
18411;SDS011;27097;51.738;19.472;2023-07-08T12:59:17;2.90;;;2.00;;
18411;SDS011;27097;51.738;19.472;2023-07-08T13:01:47;2.67;;;2.13;;
18411;SDS011;27097;51.738;19.472;2023-07-08T13:04:17;3.25;;;2.20;;
18411;SDS011;27097;51.738;19.472;2023-07-08T13:06:44;2.20;;;1.98;;
18411;SDS011;27097;51.738;19.472;2023-07-08T13:09:21;6.13;;;2.20;;
18411;SDS011;27097;51.738;19.472;2023-07-08T13:11:56;2.47;;;2.15;;
18411;SDS011;27097;51.738;19.472;2023-07-08T13:14:24;7.75;;;2.60;;
18411;SDS011;27097;51.738;19.472;2023-07-08T13:16:51;3.63;;;2.08;;
18411;SDS011;27097;51.738;19.472;2023-07-08T13:19:18;3.38;;;2.13;;
18411;SDS011;27097;51.738;19.472;2023-07-08T13:21:46;2.20;;;2.00;;
18411;SDS011;27097;51.738;19.472;2023-07-08T13:24:14;2.45;;;2.15;;
18411;SDS011;27097;51.738;19.472;2023-07-08T13:26:50;2.58;;;2.08;;
18411;SDS011;27097;51.738;19.472;2023-07-08T13:29:18;2.97;;;2.30;;
18411;SDS011;27097;51.738;19.472;2023-07-08T13:31:52;2.95;;;2.28;;
18411;SDS011;27097;51.738;19.472;2023-07-08T13:34:23;2.42;;;2.22;;
18411;SDS011;27097;51.738;19.472;2023-07-08T13:36:51;4.80;;;2.10;;
18411;SDS011;27097;51.738;19.472;2023-07-08T13:39:20;2.88;;;2.20;;
18411;SDS011;27097;51.738;19.472;2023-07-08T13:41:56;3.00;;;2.38;;
18411;SDS011;27097;51.738;19.472;2023-07-08T13:44:23;2.55;;;2.20;;
18411;SDS011;27097;51.738;19.472;2023-07-08T13:46:51;2.90;;;2.35;;
18411;SDS011;27097;51.738;19.472;2023-07-08T13:49:20;4.97;;;2.33;;
18411;SDS011;27097;51.738;19.472;2023-07-08T13:51:50;5.30;;;2.60;;
18411;SDS011;27097;51.738;19.472;2023-07-08T13:54:19;6.45;;;2.40;;
18411;SDS011;27097;51.738;19.472;2023-07-08T13:56:48;2.75;;;2.17;;
18411;SDS011;27097;51.738;19.472;2023-07-08T13:59:19;3.38;;;2.40;;
18411;SDS011;27097;51.738;19.472;2023-07-08T14:01:48;5.43;;;2.47;;
18411;SDS011;27097;51.738;19.472;2023-07-08T14:04:19;4.32;;;2.50;;
18411;SDS011;27097;51.738;19.472;2023-07-08T14:06:48;4.72;;;2.40;;
18411;SDS011;27097;51.738;19.472;2023-07-08T14:09:17;5.20;;;2.65;;
18411;SDS011;27097;51.738;19.472;2023-07-08T14:11:45;9.80;;;3.70;;
18411;SDS011;27097;51.738;19.472;2023-07-08T14:14:13;17.27;;;3.72;;
18411;SDS011;27097;51.738;19.472;2023-07-08T14:16:42;12.55;;;3.22;;
18411;SDS011;27097;51.738;19.472;2023-07-08T14:19:13;14.98;;;3.08;;
18411;SDS011;27097;51.738;19.472;2023-07-08T14:21:42;12.82;;;3.10;;
18411;SDS011;27097;51.738;19.472;2023-07-08T14:24:10;11.25;;;3.30;;
18411;SDS011;27097;51.738;19.472;2023-07-08T14:26:40;7.97;;;2.88;;
18411;SDS011;27097;51.738;19.472;2023-07-08T14:32:31;6.18;;;2.80;;
18411;SDS011;27097;51.738;19.472;2023-07-08T14:35:14;11.77;;;2.92;;
18411;SDS011;27097;51.738;19.472;2023-07-08T14:37:43;5.38;;;2.50;;
18411;SDS011;27097;51.738;19.472;2023-07-08T14:40:18;6.72;;;2.72;;
18411;SDS011;27097;51.738;19.472;2023-07-08T14:42:50;7.75;;;3.10;;
18411;SDS011;27097;51.738;19.472;2023-07-08T14:45:25;6.47;;;3.22;;
18411;SDS011;27097;51.738;19.472;2023-07-08T14:47:56;6.18;;;2.60;;
18411;SDS011;27097;51.738;19.472;2023-07-08T14:50:23;7.47;;;2.80;;
18411;SDS011;27097;51.738;19.472;2023-07-08T14:52:54;4.53;;;2.63;;
18411;SDS011;27097;51.738;19.472;2023-07-08T14:55:21;6.40;;;2.92;;